createdAt,value
2022-08-09T00:00:28.562Z,16.28
2022-08-09T00:01:40.304Z,16.28
2022-08-09T00:02:28.515Z,16.31
2022-08-09T00:04:00.859Z,16.21
2022-08-09T00:04:35.068Z,16.27
2022-08-09T00:06:15.659Z,16.23
2022-08-09T00:06:28.471Z,16.20
2022-08-09T00:07:29.826Z,16.15
2022-08-09T00:08:32.058Z,16.11
2022-08-09T00:09:27.445Z,16.09
2022-08-09T00:10:27.449Z,16.09
2022-08-09T00:11:27.837Z,16.08
2022-08-09T00:12:29.840Z,16.08
2022-08-09T00:13:28.397Z,15.96
2022-08-09T00:14:36.364Z,15.93
2022-08-09T00:15:35.609Z,15.96
2022-08-09T00:16:38.389Z,15.92
2022-08-09T00:18:10.937Z,15.93
2022-08-09T00:18:28.972Z,15.90
2022-08-09T00:19:27.686Z,15.90
2022-08-09T00:20:27.337Z,15.93
2022-08-09T00:21:27.310Z,15.86
2022-08-09T00:22:35.103Z,15.80
2022-08-09T00:23:57.792Z,15.75
2022-08-09T00:24:28.270Z,15.76
2022-08-09T00:25:32.998Z,15.75
2022-08-09T00:26:29.837Z,15.76
2022-08-09T00:27:27.741Z,15.74
2022-08-09T00:28:28.226Z,15.69
2022-08-09T00:29:39.613Z,15.68
2022-08-09T00:30:28.224Z,15.71
2022-08-09T00:31:56.884Z,15.65
2022-08-09T00:32:28.182Z,15.68
2022-08-09T00:33:32.622Z,15.59
2022-08-09T00:34:28.160Z,15.65
2022-08-09T00:35:29.674Z,15.54
2022-08-09T00:36:30.630Z,15.59
2022-08-09T00:37:27.136Z,15.57
2022-08-09T00:38:28.116Z,15.49
2022-08-09T00:40:13.899Z,15.57
2022-08-09T00:40:30.953Z,15.51
2022-08-09T00:44:10.713Z,15.50
2022-08-09T00:44:10.787Z,15.53
2022-08-09T00:44:14.160Z,15.50
2022-08-09T00:44:28.733Z,15.50
2022-08-09T00:45:27.044Z,15.51
2022-08-09T00:46:55.515Z,15.41
2022-08-09T00:47:28.018Z,15.44
2022-08-09T00:48:28.004Z,15.36
2022-08-09T00:49:28.129Z,15.36
2022-08-09T00:50:27.287Z,15.38
2022-08-09T00:51:26.994Z,15.39
2022-08-09T00:52:30.192Z,15.31
2022-08-09T00:53:26.952Z,15.32
2022-08-09T00:54:34.920Z,15.35
2022-08-09T00:56:03.969Z,15.29
2022-08-09T00:56:27.916Z,15.27
2022-08-09T00:57:34.007Z,15.34
2022-08-09T00:58:27.933Z,15.31
2022-08-09T00:59:40.401Z,15.25
2022-08-09T01:00:27.877Z,15.34
2022-08-09T01:01:32.184Z,15.28
2022-08-09T01:02:27.878Z,15.27
2022-08-09T01:03:28.327Z,15.16
2022-08-09T01:04:27.470Z,15.21
2022-08-09T01:05:53.272Z,15.19
2022-08-09T01:06:53.449Z,15.21
2022-08-09T01:07:37.899Z,15.13
2022-08-09T01:08:27.782Z,15.17
2022-08-09T01:09:26.773Z,15.14
2022-08-09T01:10:29.012Z,15.07
2022-08-09T01:11:26.749Z,15.06
2022-08-09T01:12:26.762Z,15.01
2022-08-09T01:13:31.197Z,15.06
2022-08-09T01:14:27.716Z,15.01
2022-08-09T01:15:26.704Z,14.86
2022-08-09T01:16:26.697Z,14.89
2022-08-09T01:17:30.521Z,14.92
2022-08-09T01:18:30.014Z,14.91
2022-08-09T01:19:42.999Z,14.94
2022-08-09T01:20:27.669Z,14.96
2022-08-09T01:21:26.657Z,14.92
2022-08-09T01:22:27.626Z,14.86
2022-08-09T01:24:00.681Z,14.75
2022-08-09T01:24:27.603Z,14.88
2022-08-09T01:25:26.592Z,14.80
2022-08-09T01:26:26.604Z,14.80
2022-08-09T01:27:26.573Z,14.77
2022-08-09T01:28:26.560Z,14.77
2022-08-09T01:29:28.123Z,14.80
2022-08-09T01:30:33.590Z,14.70
2022-08-09T01:32:29.167Z,14.72
2022-08-09T01:32:31.750Z,14.75
2022-08-09T01:33:27.500Z,14.69
2022-08-09T01:34:26.493Z,14.62
2022-08-09T01:35:37.463Z,14.65
2022-08-09T01:36:27.467Z,14.61
2022-08-09T01:38:06.427Z,14.61
2022-08-09T01:38:27.473Z,14.65
2022-08-09T01:39:26.491Z,14.62
2022-08-09T01:40:28.612Z,14.60
2022-08-09T01:41:26.419Z,14.61
2022-08-09T01:42:26.402Z,14.47
2022-08-09T01:43:26.426Z,14.57
2022-08-09T01:44:26.378Z,14.58
2022-08-09T01:45:26.371Z,14.54
2022-08-09T01:46:27.086Z,14.46
2022-08-09T01:47:26.351Z,14.54
2022-08-09T01:48:29.769Z,14.51
2022-08-09T01:49:26.325Z,14.51
2022-08-09T01:50:30.045Z,14.52
2022-08-09T01:51:27.306Z,14.52
2022-08-09T01:52:27.288Z,14.54
2022-08-09T01:53:29.347Z,14.39
2022-08-09T01:54:27.515Z,14.42
2022-08-09T01:55:26.259Z,14.32
2022-08-09T01:56:26.269Z,14.45
2022-08-09T01:57:26.234Z,14.36
2022-08-09T01:58:26.222Z,14.42
2022-08-09T01:59:26.234Z,14.36
2022-08-09T02:00:35.819Z,14.40
2022-08-09T02:01:30.510Z,14.39
2022-08-09T02:02:29.953Z,14.39
2022-08-09T02:03:26.168Z,14.35
2022-08-09T02:04:26.178Z,14.33
2022-08-09T02:05:37.781Z,14.29
2022-08-09T02:06:27.132Z,14.39
2022-08-09T02:08:39.897Z,14.28
2022-08-09T02:08:41.354Z,14.28
2022-08-09T02:09:27.100Z,14.29
2022-08-09T02:10:29.875Z,14.25
2022-08-09T02:11:42.622Z,14.27
2022-08-09T02:12:27.130Z,14.37
2022-08-09T02:13:37.669Z,14.33
2022-08-09T02:14:27.548Z,14.29
2022-08-09T02:15:26.935Z,14.27
2022-08-09T02:16:33.857Z,14.33
2022-08-09T02:17:59.813Z,14.22
2022-08-09T02:18:26.997Z,14.27
2022-08-09T02:19:38.711Z,14.20
2022-08-09T02:20:32.769Z,14.27
2022-08-09T02:21:27.540Z,14.25
2022-08-09T02:22:31.703Z,14.25
2022-08-09T02:23:26.964Z,14.17
2022-08-09T02:24:26.991Z,14.12
2022-08-09T02:25:25.921Z,14.18
2022-08-09T02:26:27.287Z,14.10
2022-08-09T02:27:43.162Z,14.17
2022-08-09T02:28:26.911Z,14.20
2022-08-09T02:29:25.900Z,14.17
2022-08-09T02:30:26.351Z,14.09
2022-08-09T02:31:25.861Z,14.14
2022-08-09T02:32:25.864Z,14.10
2022-08-09T02:33:58.761Z,14.09
2022-08-09T02:34:40.542Z,14.04
2022-08-09T02:36:02.072Z,14.04
2022-08-09T02:36:26.795Z,13.97
2022-08-09T02:37:31.720Z,13.97
2022-08-09T02:38:28.845Z,14.00
2022-08-09T02:39:34.040Z,14.04
2022-08-09T02:40:30.357Z,13.96
2022-08-09T02:41:25.745Z,13.95
2022-08-09T02:42:25.752Z,13.99
2022-08-09T02:43:25.741Z,13.95
2022-08-09T02:44:30.250Z,13.89
2022-08-09T02:45:28.694Z,13.91
2022-08-09T02:46:25.697Z,13.92
2022-08-09T02:47:25.676Z,13.87
2022-08-09T02:48:30.825Z,13.87
2022-08-09T02:49:27.231Z,13.85
2022-08-09T02:50:26.993Z,13.85
2022-08-09T02:51:26.569Z,13.84
2022-08-09T02:52:25.620Z,13.91
2022-08-09T02:53:26.292Z,13.82
2022-08-09T02:54:25.595Z,13.84
2022-08-09T02:55:46.835Z,13.79
2022-08-09T02:56:27.941Z,13.81
2022-08-09T02:57:25.606Z,13.81
2022-08-09T02:58:35.827Z,13.73
2022-08-09T02:59:36.169Z,13.70
2022-08-09T03:00:26.551Z,13.82
2022-08-09T03:01:29.518Z,13.84
2022-08-09T03:02:26.526Z,13.73
2022-08-09T03:04:12.842Z,13.69
2022-08-09T03:04:29.557Z,13.70
2022-08-09T03:05:25.479Z,13.64
2022-08-09T03:06:27.493Z,13.66
2022-08-09T03:07:25.451Z,13.57
2022-08-09T03:08:25.441Z,13.55
2022-08-09T03:09:25.435Z,13.55
2022-08-09T03:10:26.416Z,13.55
2022-08-09T03:11:29.894Z,13.46
2022-08-09T03:12:26.397Z,13.55
2022-08-09T03:13:25.386Z,13.51
2022-08-09T03:14:28.256Z,13.55
2022-08-09T03:15:25.371Z,13.52
2022-08-09T03:16:26.348Z,13.54
2022-08-09T03:17:27.043Z,13.55
2022-08-09T03:18:31.083Z,13.52
2022-08-09T03:19:57.775Z,13.51
2022-08-09T03:20:26.302Z,13.54
2022-08-09T03:21:25.870Z,13.52
2022-08-09T03:22:30.926Z,13.49
2022-08-09T03:23:26.269Z,13.57
2022-08-09T03:24:25.305Z,13.54
2022-08-09T03:25:59.259Z,13.49
2022-08-09T03:26:31.930Z,13.55
2022-08-09T03:27:26.247Z,13.54
2022-08-09T03:28:25.216Z,13.54
2022-08-09T03:29:25.205Z,13.52
2022-08-09T03:30:29.991Z,13.48
2022-08-09T03:31:26.185Z,13.48
2022-08-09T03:32:25.325Z,13.49
2022-08-09T03:33:25.161Z,13.51
2022-08-09T03:34:25.151Z,13.52
2022-08-09T03:36:11.629Z,13.44
2022-08-09T03:36:27.564Z,13.49
2022-08-09T03:37:56.706Z,13.45
2022-08-09T03:38:28.864Z,13.45
2022-08-09T03:39:28.673Z,13.46
2022-08-09T03:40:31.076Z,13.42
2022-08-09T03:41:29.802Z,13.42
2022-08-09T03:42:26.270Z,13.33
2022-08-09T03:43:25.053Z,13.38
2022-08-09T03:44:27.744Z,13.42
2022-08-09T03:46:03.858Z,13.33
2022-08-09T03:46:29.272Z,13.36
2022-08-09T03:47:25.007Z,13.38
2022-08-09T03:48:30.948Z,13.39
2022-08-09T03:49:25.982Z,13.42
2022-08-09T03:50:28.036Z,13.39
2022-08-09T03:51:54.123Z,13.29
2022-08-09T03:52:25.948Z,13.30
2022-08-09T03:53:32.227Z,13.33
2022-08-09T03:54:29.354Z,13.32
2022-08-09T03:55:24.915Z,13.30
2022-08-09T03:56:24.904Z,13.33
2022-08-09T03:57:24.896Z,13.29
2022-08-09T03:58:24.881Z,13.26
2022-08-09T03:59:42.849Z,13.23
2022-08-09T04:00:25.934Z,13.29
2022-08-09T04:01:25.094Z,13.30
2022-08-09T04:02:26.953Z,13.28
2022-08-09T04:03:45.886Z,13.28
2022-08-09T04:04:25.812Z,13.30
2022-08-09T04:05:27.547Z,13.30
2022-08-09T04:06:24.824Z,13.32
2022-08-09T04:07:33.773Z,13.30
2022-08-09T04:08:28.929Z,13.38
2022-08-09T04:09:47.823Z,13.38
2022-08-09T04:10:29.117Z,13.41
2022-08-09T04:11:25.033Z,13.45
2022-08-09T04:12:40.313Z,13.42
2022-08-09T04:13:45.123Z,13.41
2022-08-09T04:14:52.891Z,13.42
2022-08-09T04:15:40.416Z,13.45
2022-08-09T04:16:25.778Z,13.42
2022-08-09T04:17:24.668Z,13.45
2022-08-09T04:18:24.868Z,13.41
2022-08-09T04:19:42.600Z,13.41
2022-08-09T04:20:25.917Z,13.38
2022-08-09T04:21:24.644Z,13.45
2022-08-09T04:22:24.659Z,13.49
2022-08-09T04:23:25.863Z,13.44
2022-08-09T04:24:24.590Z,13.38
2022-08-09T04:25:24.582Z,13.49
2022-08-09T04:26:24.824Z,13.45
2022-08-09T04:27:25.566Z,13.41
2022-08-09T04:28:33.525Z,13.51
2022-08-09T04:29:25.536Z,13.48
2022-08-09T04:30:26.247Z,13.48
2022-08-09T04:31:37.347Z,13.48
2022-08-09T04:32:37.090Z,13.46
2022-08-09T04:33:28.699Z,13.55
2022-08-09T04:34:31.818Z,13.45
2022-08-09T04:35:25.468Z,13.42
2022-08-09T04:36:24.692Z,13.54
2022-08-09T04:37:24.465Z,13.44
2022-08-09T04:38:25.430Z,13.44
2022-08-09T04:39:24.515Z,13.57
2022-08-09T04:40:36.226Z,13.49
2022-08-09T04:41:33.260Z,13.52
2022-08-09T04:42:25.414Z,13.60
2022-08-09T04:43:25.352Z,13.55
2022-08-09T04:44:24.370Z,13.60
2022-08-09T04:45:24.359Z,13.60
2022-08-09T04:46:36.659Z,13.57
2022-08-09T04:47:25.340Z,13.54
2022-08-09T04:48:33.418Z,13.51
2022-08-09T04:49:40.549Z,13.62
2022-08-09T04:50:25.302Z,13.52
2022-08-09T04:51:25.287Z,13.51
2022-08-09T04:52:26.631Z,13.59
2022-08-09T04:53:24.270Z,13.62
2022-08-09T04:54:24.277Z,13.77
2022-08-09T04:55:24.247Z,13.67
2022-08-09T04:56:26.110Z,13.69
2022-08-09T04:57:25.080Z,13.69
2022-08-09T04:58:24.211Z,13.73
2022-08-09T04:59:24.204Z,13.70
2022-08-09T05:00:25.185Z,13.71
2022-08-09T05:01:25.204Z,13.84
2022-08-09T05:02:24.196Z,13.77
2022-08-09T05:03:41.034Z,13.78
2022-08-09T05:04:30.780Z,13.84
2022-08-09T05:05:32.253Z,13.84
2022-08-09T05:06:27.874Z,13.92
2022-08-09T05:07:24.136Z,13.92
2022-08-09T05:08:24.102Z,13.96
2022-08-09T05:09:24.090Z,13.95
2022-08-09T05:10:24.077Z,13.99
2022-08-09T05:11:24.066Z,14.02
2022-08-09T05:12:25.121Z,13.99
2022-08-09T05:13:24.046Z,14.12
2022-08-09T05:14:24.033Z,14.09
2022-08-09T05:15:38.686Z,14.17
2022-08-09T05:16:31.724Z,14.18
2022-08-09T05:18:37.737Z,14.22
2022-08-09T05:18:38.910Z,14.21
2022-08-09T05:19:26.160Z,14.28
2022-08-09T05:20:24.966Z,14.27
2022-08-09T05:21:30.037Z,14.39
2022-08-09T05:22:35.971Z,14.51
2022-08-09T05:23:54.697Z,14.58
2022-08-09T05:24:24.927Z,14.62
2022-08-09T05:25:23.915Z,14.61
2022-08-09T05:26:36.134Z,14.68
2022-08-09T05:27:24.888Z,14.78
2022-08-09T05:28:24.046Z,14.88
2022-08-09T05:29:24.226Z,14.86
2022-08-09T05:30:24.853Z,14.81
2022-08-09T05:31:44.979Z,14.89
2022-08-09T05:32:24.914Z,14.91
2022-08-09T05:33:26.394Z,15.01
2022-08-09T05:34:29.995Z,15.02
2022-08-09T05:35:24.798Z,15.03
2022-08-09T05:36:26.424Z,15.16
2022-08-09T05:37:24.779Z,15.09
2022-08-09T05:38:23.790Z,15.17
2022-08-09T05:39:28.862Z,15.14
2022-08-09T05:40:24.744Z,15.27
2022-08-09T05:41:23.730Z,15.34
2022-08-09T05:42:28.688Z,15.38
2022-08-09T05:43:24.731Z,15.31
2022-08-09T05:44:28.888Z,15.35
2022-08-09T05:45:24.832Z,15.34
2022-08-09T05:46:23.674Z,15.44
2022-08-09T05:47:23.788Z,15.56
2022-08-09T05:48:32.736Z,15.57
2022-08-09T05:50:23.497Z,15.69
2022-08-09T05:50:50.812Z,15.94
2022-08-09T05:51:42.963Z,16.07
2022-08-09T05:52:30.761Z,16.17
2022-08-09T05:53:33.313Z,16.30
2022-08-09T05:54:24.588Z,16.39
2022-08-09T05:55:24.278Z,16.48
2022-08-09T05:56:25.948Z,16.63
2022-08-09T05:57:25.042Z,16.91
2022-08-09T05:58:24.543Z,17.18
2022-08-09T05:59:23.531Z,17.43
2022-08-09T06:00:23.552Z,17.64
2022-08-09T06:01:23.513Z,17.99
2022-08-09T06:02:23.579Z,18.18
2022-08-09T06:03:23.533Z,18.45
2022-08-09T06:04:23.743Z,18.76
2022-08-09T06:05:50.159Z,18.88
2022-08-09T06:06:24.453Z,19.10
2022-08-09T06:07:23.463Z,19.32
2022-08-09T06:08:24.460Z,19.23
2022-08-09T06:09:53.852Z,19.40
2022-08-09T06:10:24.409Z,19.33
2022-08-09T06:11:40.628Z,19.46
2022-08-09T06:12:26.350Z,19.54
2022-08-09T06:13:23.375Z,19.63
2022-08-09T06:14:23.364Z,19.65
2022-08-09T06:15:23.375Z,19.86
2022-08-09T06:16:23.349Z,19.69
2022-08-09T06:17:23.353Z,19.66
2022-08-09T06:18:24.985Z,19.68
2022-08-09T06:19:23.310Z,19.63
2022-08-09T06:20:23.298Z,19.58
2022-08-09T06:21:23.286Z,19.48
2022-08-09T06:22:29.053Z,19.54
2022-08-09T06:23:24.262Z,19.48
2022-08-09T06:24:24.254Z,19.33
2022-08-09T06:25:23.246Z,19.39
2022-08-09T06:26:28.448Z,19.43
2022-08-09T06:27:24.242Z,19.36
2022-08-09T06:28:31.868Z,19.37
2022-08-09T06:29:24.193Z,19.37
2022-08-09T06:30:23.193Z,19.26
2022-08-09T06:31:31.477Z,19.37
2022-08-09T06:33:00.559Z,19.37
2022-08-09T06:33:40.684Z,19.48
2022-08-09T06:34:26.359Z,19.39
2022-08-09T06:35:55.849Z,19.31
2022-08-09T06:36:27.296Z,19.46
2022-08-09T06:37:24.106Z,19.29
2022-08-09T06:38:31.989Z,19.48
2022-08-09T06:39:24.125Z,19.66
2022-08-09T06:40:24.643Z,19.87
2022-08-09T06:41:23.067Z,19.88
2022-08-09T06:42:24.335Z,20.06
2022-08-09T06:43:23.043Z,20.01
2022-08-09T06:44:23.056Z,20.06
2022-08-09T06:46:06.519Z,19.96
2022-08-09T06:46:39.821Z,20.10
2022-08-09T06:47:24.091Z,20.03
2022-08-09T06:48:26.124Z,20.06
2022-08-09T06:49:29.341Z,20.28
2022-08-09T06:50:24.028Z,20.24
2022-08-09T06:51:22.954Z,20.41
2022-08-09T06:52:23.644Z,20.39
2022-08-09T06:53:22.952Z,20.41
2022-08-09T06:54:22.951Z,20.58
2022-08-09T06:55:23.980Z,20.59
2022-08-09T06:56:30.527Z,20.67
2022-08-09T06:57:25.812Z,20.74
2022-08-09T07:00:46.630Z,20.84
2022-08-09T07:00:48.873Z,20.92
2022-08-09T07:00:52.037Z,20.88
2022-08-09T07:01:24.115Z,20.95
2022-08-09T07:02:31.100Z,21.10
2022-08-09T07:03:27.906Z,21.19
2022-08-09T07:04:22.814Z,21.17
2022-08-09T07:05:23.094Z,21.24
2022-08-09T07:06:22.791Z,21.22
2022-08-09T07:07:58.714Z,21.17
2022-08-09T07:08:24.759Z,21.25
2022-08-09T07:09:55.369Z,21.29
2022-08-09T07:10:29.656Z,21.19
2022-08-09T07:11:25.565Z,21.12
2022-08-09T07:12:22.722Z,21.12
2022-08-09T07:13:28.160Z,21.25
2022-08-09T07:14:26.377Z,21.29
2022-08-09T07:15:53.967Z,21.47
2022-08-09T07:16:43.462Z,21.53
2022-08-09T07:17:23.662Z,21.65
2022-08-09T07:18:22.676Z,21.74
2022-08-09T07:19:23.544Z,21.82
2022-08-09T07:20:22.637Z,21.98
2022-08-09T07:21:22.643Z,22.07
2022-08-09T07:22:34.879Z,22.18
2022-08-09T07:23:23.621Z,22.37
2022-08-09T07:24:22.595Z,22.52
2022-08-09T07:25:23.577Z,22.46
2022-08-09T07:26:22.568Z,22.65
2022-08-09T07:27:26.783Z,22.67
2022-08-09T07:28:26.178Z,22.54
2022-08-09T07:29:22.534Z,22.58
2022-08-09T07:30:24.358Z,22.76
2022-08-09T07:31:24.024Z,22.79
2022-08-09T07:32:22.986Z,22.75
2022-08-09T07:33:23.491Z,22.67
2022-08-09T07:34:22.508Z,22.47
2022-08-09T07:35:22.571Z,22.39
2022-08-09T07:36:22.458Z,22.60
2022-08-09T07:37:22.453Z,22.82
2022-08-09T07:38:23.171Z,23.10
2022-08-09T07:39:41.460Z,23.28
2022-08-09T07:40:26.841Z,23.50
2022-08-09T07:41:22.401Z,23.31
2022-08-09T07:42:22.392Z,23.19
2022-08-09T07:43:29.017Z,23.25
2022-08-09T07:44:23.990Z,22.91
2022-08-09T07:45:37.042Z,22.68
2022-08-09T07:46:23.347Z,22.79
2022-08-09T07:47:23.193Z,22.95
2022-08-09T07:48:30.103Z,22.79
2022-08-09T07:49:23.380Z,23.01
2022-08-09T07:50:34.748Z,23.31
2022-08-09T07:52:03.550Z,23.42
2022-08-09T07:52:24.148Z,23.54
2022-08-09T07:54:01.571Z,23.55
2022-08-09T07:54:27.982Z,23.43
2022-08-09T07:55:23.246Z,23.20
2022-08-09T07:56:26.841Z,22.95
2022-08-09T07:57:22.230Z,23.01
2022-08-09T07:58:26.321Z,23.28
2022-08-09T07:59:25.181Z,23.35
2022-08-09T08:00:35.869Z,23.61
2022-08-09T08:01:25.439Z,23.68
2022-08-09T08:02:23.228Z,23.58
2022-08-09T08:03:22.160Z,23.54
2022-08-09T08:04:31.830Z,23.83
2022-08-09T08:05:23.158Z,24.24
2022-08-09T08:06:22.131Z,24.53
2022-08-09T08:08:45.215Z,24.40
2022-08-09T08:09:00.631Z,24.37
2022-08-09T08:09:39.783Z,24.39
2022-08-09T08:10:23.118Z,24.39
2022-08-09T08:12:10.670Z,24.46
2022-08-09T08:12:24.899Z,24.53
2022-08-09T08:13:23.073Z,24.61
2022-08-09T08:14:24.190Z,24.76
2022-08-09T08:15:23.950Z,24.88
2022-08-09T08:16:29.511Z,24.78
2022-08-09T08:17:35.081Z,24.78
2022-08-09T08:18:22.998Z,24.95
2022-08-09T08:19:22.010Z,25.15
2022-08-09T08:20:29.420Z,24.95
2022-08-09T08:21:23.012Z,25.03
2022-08-09T08:22:24.097Z,24.88
2022-08-09T08:23:22.941Z,24.87
2022-08-09T08:24:21.956Z,24.90
2022-08-09T08:25:21.924Z,24.96
2022-08-09T08:26:26.726Z,25.13
2022-08-09T08:27:22.937Z,25.14
2022-08-09T08:28:26.147Z,25.18
2022-08-09T08:29:27.482Z,25.30
2022-08-09T08:30:22.869Z,25.36
2022-08-09T08:31:21.882Z,25.52
2022-08-09T08:32:28.885Z,25.52
2022-08-09T08:33:23.775Z,25.51
2022-08-09T08:34:25.447Z,25.47
2022-08-09T08:35:22.162Z,25.17
2022-08-09T08:36:28.310Z,25.25
2022-08-09T08:37:22.796Z,25.32
2022-08-09T08:38:21.786Z,25.45
2022-08-09T08:39:22.033Z,25.62
2022-08-09T08:40:21.782Z,25.57
2022-08-09T08:41:21.751Z,25.62
2022-08-09T08:42:31.680Z,25.57
2022-08-09T08:43:23.172Z,25.52
2022-08-09T08:44:27.237Z,25.75
2022-08-09T08:45:37.732Z,25.95
2022-08-09T08:46:32.908Z,25.90
2022-08-09T08:47:22.709Z,25.92
2022-08-09T08:48:21.678Z,25.92
2022-08-09T08:49:22.561Z,25.76
2022-08-09T08:50:22.656Z,25.80
2022-08-09T08:51:22.483Z,25.67
2022-08-09T08:52:57.566Z,25.76
2022-08-09T08:53:22.622Z,25.95
2022-08-09T08:54:28.124Z,26.18
2022-08-09T08:55:23.329Z,26.37
2022-08-09T08:56:28.067Z,26.58
2022-08-09T08:57:22.585Z,26.80
2022-08-09T08:58:27.141Z,26.70
2022-08-09T08:59:22.556Z,26.81
2022-08-09T09:00:27.928Z,27.03
2022-08-09T09:01:24.961Z,27.14
2022-08-09T09:02:31.397Z,26.99
2022-08-09T09:03:22.795Z,26.99
2022-08-09T09:04:27.024Z,27.25
2022-08-09T09:05:22.689Z,26.91
2022-08-09T09:06:22.485Z,26.60
2022-08-09T09:07:21.494Z,26.57
2022-08-09T09:08:30.224Z,26.91
2022-08-09T09:09:50.235Z,26.73
2022-08-09T09:10:22.438Z,26.76
2022-08-09T09:11:21.430Z,26.91
2022-08-09T09:12:21.788Z,26.70
2022-08-09T09:13:21.427Z,26.85
2022-08-09T09:14:21.398Z,27.07
2022-08-09T09:15:27.913Z,27.19
2022-08-09T09:16:31.259Z,27.27
2022-08-09T09:17:22.364Z,27.39
2022-08-09T09:18:21.357Z,27.67
2022-08-09T09:19:37.789Z,27.82
2022-08-09T09:20:22.353Z,27.29
2022-08-09T09:21:25.991Z,26.99
2022-08-09T09:22:28.688Z,27.18
2022-08-09T09:23:22.298Z,27.60
2022-08-09T09:24:22.288Z,27.70
2022-08-09T09:26:01.238Z,27.84
2022-08-09T09:26:22.275Z,27.88
2022-08-09T09:28:03.018Z,27.79
2022-08-09T09:28:39.282Z,27.90
2022-08-09T09:29:22.236Z,28.09
2022-08-09T09:30:39.987Z,28.12
2022-08-09T09:32:03.448Z,28.40
2022-08-09T09:32:34.373Z,28.61
2022-08-09T09:33:23.780Z,28.51
2022-08-09T09:34:21.185Z,28.09
2022-08-09T09:35:21.200Z,27.96
2022-08-09T09:36:22.055Z,27.70
2022-08-09T09:37:21.151Z,27.74
2022-08-09T09:38:27.812Z,27.96
2022-08-09T09:39:22.226Z,28.41
2022-08-09T09:40:21.195Z,28.44
2022-08-09T09:41:21.127Z,28.61
2022-08-09T09:42:21.104Z,28.96
2022-08-09T09:43:21.089Z,29.19
2022-08-09T09:44:25.923Z,29.51
2022-08-09T09:45:25.867Z,29.63
2022-08-09T09:47:22.044Z,29.74
2022-08-09T09:48:21.036Z,29.94
2022-08-09T09:49:31.642Z,29.87
2022-08-09T09:50:23.200Z,29.80
2022-08-09T09:51:38.074Z,29.68
2022-08-09T09:52:36.240Z,29.90
2022-08-09T09:53:43.863Z,30.10
2022-08-09T09:54:22.001Z,30.01
2022-08-09T09:55:27.953Z,29.94
2022-08-09T09:56:31.566Z,29.90
2022-08-09T09:58:00.961Z,29.95
2022-08-09T09:58:21.933Z,29.95
2022-08-09T09:59:20.918Z,30.11
2022-08-09T10:00:22.049Z,30.29
2022-08-09T10:01:31.478Z,30.58
2022-08-09T10:02:21.897Z,30.76
2022-08-09T10:03:21.122Z,30.24
2022-08-09T10:04:23.027Z,30.26
2022-08-09T10:05:21.875Z,29.94
2022-08-09T10:06:21.865Z,29.74
2022-08-09T10:07:20.837Z,29.78
2022-08-09T10:08:27.698Z,29.55
2022-08-09T10:09:23.848Z,29.76
2022-08-09T10:10:20.801Z,29.78
2022-08-09T10:12:00.743Z,29.90
2022-08-09T10:12:28.068Z,29.83
2022-08-09T10:13:24.814Z,29.65
2022-08-09T10:14:27.495Z,29.39
2022-08-09T10:15:50.677Z,29.09
2022-08-09T10:16:57.649Z,28.76
2022-08-09T10:17:39.294Z,28.71
2022-08-09T10:18:21.717Z,29.00
2022-08-09T10:19:20.730Z,29.00
2022-08-09T10:20:31.975Z,28.98
2022-08-09T10:21:21.687Z,29.06
2022-08-09T10:22:29.324Z,29.12
2022-08-09T10:23:21.967Z,29.39
2022-08-09T10:24:25.667Z,29.16
2022-08-09T10:25:21.749Z,29.23
2022-08-09T10:26:20.635Z,29.42
2022-08-09T10:27:24.989Z,29.26
2022-08-09T10:28:21.666Z,29.26
2022-08-09T10:29:32.781Z,29.18
2022-08-09T10:32:38.697Z,28.90
2022-08-09T10:34:07.655Z,29.04
2022-08-09T10:34:33.560Z,28.95
2022-08-09T10:35:21.537Z,28.93
2022-08-09T10:36:20.565Z,28.93
2022-08-09T10:37:20.519Z,28.80
2022-08-09T10:38:34.456Z,29.04
2022-08-09T10:39:21.567Z,29.27
2022-08-09T10:40:33.322Z,29.57
2022-08-09T10:41:21.474Z,29.89
2022-08-09T10:42:20.468Z,29.64
2022-08-09T10:43:21.451Z,29.73
2022-08-09T10:44:21.948Z,29.76
2022-08-09T10:45:20.543Z,29.57
2022-08-09T10:46:25.191Z,29.52
2022-08-09T10:48:12.266Z,29.58
2022-08-09T10:48:30.602Z,29.67
2022-08-09T10:49:21.426Z,29.46
2022-08-09T10:50:21.035Z,29.67
2022-08-09T10:51:21.371Z,29.73
2022-08-09T10:52:21.358Z,29.74
2022-08-09T10:53:21.200Z,29.46
2022-08-09T10:54:20.338Z,29.58
2022-08-09T10:55:20.346Z,29.78
2022-08-09T10:56:23.016Z,29.68
2022-08-09T10:57:20.330Z,29.48
2022-08-09T10:58:25.441Z,29.51
2022-08-09T10:59:21.286Z,29.67
2022-08-09T11:00:20.271Z,29.76
2022-08-09T11:03:11.855Z,29.49
2022-08-09T11:03:15.166Z,29.18
2022-08-09T11:03:50.263Z,29.24
2022-08-09T11:04:31.756Z,29.48
2022-08-09T11:05:25.043Z,29.48
2022-08-09T11:06:22.970Z,29.48
2022-08-09T11:07:20.200Z,29.49
2022-08-09T11:08:33.323Z,29.46
2022-08-09T11:09:21.180Z,29.55
2022-08-09T11:10:20.336Z,29.70
2022-08-09T11:11:21.350Z,29.74
2022-08-09T11:12:20.342Z,29.79
2022-08-09T11:13:50.660Z,29.82
2022-08-09T11:14:28.458Z,29.68
2022-08-09T11:15:23.775Z,29.48
2022-08-09T11:16:35.108Z,29.65
2022-08-09T11:17:21.096Z,29.67
2022-08-09T11:18:20.082Z,29.80
2022-08-09T11:19:20.074Z,30.04
2022-08-09T11:20:23.022Z,30.32
2022-08-09T11:21:20.094Z,30.20
2022-08-09T11:22:25.670Z,29.80
2022-08-09T11:23:23.991Z,29.46
2022-08-09T11:24:21.020Z,28.83
2022-08-09T11:25:25.797Z,28.46
2022-08-09T11:26:21.048Z,28.19
2022-08-09T11:27:52.901Z,28.25
2022-08-09T11:28:27.715Z,28.33
2022-08-09T11:30:06.265Z,28.44
2022-08-09T11:30:33.229Z,28.54
2022-08-09T11:31:33.916Z,28.83
2022-08-09T11:32:20.934Z,28.95
2022-08-09T11:33:19.925Z,28.89
2022-08-09T11:34:19.917Z,28.58
2022-08-09T11:35:23.821Z,28.66
2022-08-09T11:36:30.388Z,28.93
2022-08-09T11:37:20.899Z,28.92
2022-08-09T11:38:22.128Z,29.02
2022-08-09T11:39:19.911Z,28.96
2022-08-09T11:40:19.853Z,28.89
2022-08-09T11:41:19.870Z,28.96
2022-08-09T11:42:19.827Z,28.81
2022-08-09T11:43:19.847Z,28.89
2022-08-09T11:44:19.814Z,28.77
2022-08-09T11:45:19.822Z,28.67
2022-08-09T11:46:32.814Z,28.58
2022-08-09T11:47:20.784Z,28.58
2022-08-09T11:48:25.965Z,28.37
2022-08-09T11:49:28.188Z,28.71
2022-08-09T11:50:56.316Z,28.89
2022-08-09T11:52:49.559Z,28.64
2022-08-09T11:52:56.727Z,28.49
2022-08-09T11:54:01.375Z,28.11
2022-08-09T11:54:28.264Z,27.87
2022-08-09T11:55:34.703Z,27.72
2022-08-09T11:56:20.687Z,27.69
2022-08-09T11:57:46.883Z,27.59
2022-08-09T11:58:30.408Z,27.47
2022-08-09T11:59:20.650Z,27.44
2022-08-09T12:00:24.617Z,27.32
2022-08-09T12:02:15.894Z,27.29
2022-08-09T12:02:37.401Z,27.27
2022-08-09T12:03:55.228Z,27.29
2022-08-09T12:04:28.697Z,27.29
2022-08-09T12:05:22.949Z,27.29
2022-08-09T12:06:24.837Z,27.32
2022-08-09T12:07:20.565Z,27.32
2022-08-09T12:08:21.643Z,27.72
2022-08-09T12:09:21.218Z,27.93
2022-08-09T12:10:39.259Z,28.03
2022-08-09T12:11:20.520Z,28.06
2022-08-09T12:12:31.803Z,28.12
2022-08-09T12:14:07.755Z,28.21
2022-08-09T12:15:03.625Z,28.18
2022-08-09T12:15:22.219Z,28.29
2022-08-09T12:16:37.798Z,28.33
2022-08-09T12:17:34.761Z,28.33
2022-08-09T12:18:25.989Z,28.14
2022-08-09T12:19:20.436Z,28.17
2022-08-09T12:20:22.215Z,27.93
2022-08-09T12:21:28.456Z,28.04
2022-08-09T12:22:20.408Z,28.02
2022-08-09T12:23:47.400Z,28.07
2022-08-09T12:24:20.385Z,28.36
2022-08-09T12:25:36.457Z,28.21
2022-08-09T12:26:26.260Z,28.09
2022-08-09T12:29:10.433Z,28.12
2022-08-09T12:29:13.979Z,28.18
2022-08-09T12:29:32.720Z,28.06
2022-08-09T12:30:36.333Z,28.12
2022-08-09T12:31:30.934Z,28.24
2022-08-09T12:32:20.301Z,28.24
2022-08-09T12:33:19.325Z,28.29
2022-08-09T12:34:19.489Z,28.18
2022-08-09T12:35:22.031Z,28.34
2022-08-09T12:36:31.265Z,28.40
2022-08-09T12:37:24.185Z,28.52
2022-08-09T12:38:29.767Z,28.43
2022-08-09T12:39:20.314Z,28.52
2022-08-09T12:40:19.287Z,28.67
2022-08-09T12:41:19.226Z,28.59
2022-08-09T12:42:19.230Z,28.71
2022-08-09T12:43:19.188Z,28.70
2022-08-09T12:44:19.177Z,28.61
2022-08-09T12:45:34.815Z,28.37
2022-08-09T12:46:20.147Z,28.36
2022-08-09T12:47:23.130Z,28.25
2022-08-09T12:48:27.955Z,28.18
2022-08-09T12:49:20.842Z,28.33
2022-08-09T12:50:19.709Z,28.27
2022-08-09T12:51:30.668Z,28.21
2022-08-09T12:52:20.084Z,28.37
2022-08-09T12:53:22.721Z,28.70
2022-08-09T12:54:20.065Z,28.89
2022-08-09T12:56:14.198Z,28.95